sensor_id;sensor_type;location;lat;lon;timestamp;pressure;altitude;pressure_sealevel;temperature
76898;BMP180;65856;52.178;21.176;2023-08-07T00:00:42;98923.60;;;18.00
76898;BMP180;65856;52.178;21.176;2023-08-07T00:03:07;98929.00;;;18.02
76898;BMP180;65856;52.178;21.176;2023-08-07T00:05:33;98930.40;;;18.00
76898;BMP180;65856;52.178;21.176;2023-08-07T00:07:58;98933.20;;;18.00
76898;BMP180;65856;52.178;21.176;2023-08-07T00:10:25;98931.80;;;17.90
76898;BMP180;65856;52.178;21.176;2023-08-07T00:12:51;98930.00;;;17.90
76898;BMP180;65856;52.178;21.176;2023-08-07T00:15:16;98926.60;;;17.76
76898;BMP180;65856;52.178;21.176;2023-08-07T00:17:42;98937.00;;;17.60
76898;BMP180;65856;52.178;21.176;2023-08-07T00:20:08;98931.20;;;17.52
76898;BMP180;65856;52.178;21.176;2023-08-07T00:22:34;98933.80;;;17.54
76898;BMP180;65856;52.178;21.176;2023-08-07T00:24:59;98939.80;;;17.60
76898;BMP180;65856;52.178;21.176;2023-08-07T00:27:25;98942.60;;;17.60
76898;BMP180;65856;52.178;21.176;2023-08-07T00:29:51;98938.20;;;17.62
76898;BMP180;65856;52.178;21.176;2023-08-07T00:32:16;98927.80;;;17.60
76898;BMP180;65856;52.178;21.176;2023-08-07T00:34:42;98922.00;;;17.60
76898;BMP180;65856;52.178;21.176;2023-08-07T00:37:07;98924.00;;;17.60
76898;BMP180;65856;52.178;21.176;2023-08-07T00:39:33;98913.20;;;17.50
76898;BMP180;65856;52.178;21.176;2023-08-07T00:41:58;98909.80;;;17.40
76898;BMP180;65856;52.178;21.176;2023-08-07T00:44:24;98918.00;;;17.30
76898;BMP180;65856;52.178;21.176;2023-08-07T00:46:50;98918.60;;;17.30
76898;BMP180;65856;52.178;21.176;2023-08-07T00:49:16;98921.60;;;17.30
76898;BMP180;65856;52.178;21.176;2023-08-07T00:51:43;98923.60;;;17.30
76898;BMP180;65856;52.178;21.176;2023-08-07T00:54:12;98917.20;;;17.28
76898;BMP180;65856;52.178;21.176;2023-08-07T00:56:43;98909.00;;;17.26
76898;BMP180;65856;52.178;21.176;2023-08-07T00:59:09;98910.00;;;17.30
76898;BMP180;65856;52.178;21.176;2023-08-07T01:01:35;98904.80;;;17.30
76898;BMP180;65856;52.178;21.176;2023-08-07T01:04:01;98895.60;;;17.30
76898;BMP180;65856;52.178;21.176;2023-08-07T01:06:27;98896.60;;;17.30
76898;BMP180;65856;52.178;21.176;2023-08-07T01:08:52;98894.40;;;17.20
76898;BMP180;65856;52.178;21.176;2023-08-07T01:11:39;98892.00;;;17.20
76898;BMP180;65856;52.178;21.176;2023-08-07T01:14:26;98893.60;;;17.20
76898;BMP180;65856;52.178;21.176;2023-08-07T01:17:05;98895.20;;;17.20
76898;BMP180;65856;52.178;21.176;2023-08-07T01:19:35;98886.20;;;17.20
76898;BMP180;65856;52.178;21.176;2023-08-07T01:22:13;98889.20;;;17.20
76898;BMP180;65856;52.178;21.176;2023-08-07T01:24:43;98893.20;;;17.20
76898;BMP180;65856;52.178;21.176;2023-08-07T01:29:53;98895.20;;;17.12
76898;BMP180;65856;52.178;21.176;2023-08-07T01:35:17;98896.00;;;17.08
76898;BMP180;65856;52.178;21.176;2023-08-07T01:37:47;98907.20;;;17.00
76898;BMP180;65856;52.178;21.176;2023-08-07T01:40:14;98907.60;;;16.90
76898;BMP180;65856;52.178;21.176;2023-08-07T01:42:40;98913.00;;;16.80
76898;BMP180;65856;52.178;21.176;2023-08-07T01:45:06;98922.00;;;16.80
76898;BMP180;65856;52.178;21.176;2023-08-07T01:47:32;98921.20;;;16.80
76898;BMP180;65856;52.178;21.176;2023-08-07T01:49:57;98913.60;;;16.80
76898;BMP180;65856;52.178;21.176;2023-08-07T01:52:23;98909.80;;;16.80
76898;BMP180;65856;52.178;21.176;2023-08-07T01:54:48;98898.80;;;16.80
76898;BMP180;65856;52.178;21.176;2023-08-07T01:57:14;98892.20;;;16.80
76898;BMP180;65856;52.178;21.176;2023-08-07T01:59:39;98888.20;;;16.78
76898;BMP180;65856;52.178;21.176;2023-08-07T02:02:05;98880.20;;;16.70
76898;BMP180;65856;52.178;21.176;2023-08-07T02:04:30;98884.20;;;16.72
76898;BMP180;65856;52.178;21.176;2023-08-07T02:06:56;98886.00;;;16.80
76898;BMP180;65856;52.178;21.176;2023-08-07T02:09:22;98893.60;;;16.80
76898;BMP180;65856;52.178;21.176;2023-08-07T02:11:48;98902.40;;;16.70
76898;BMP180;65856;52.178;21.176;2023-08-07T02:14:13;98914.00;;;16.70
76898;BMP180;65856;52.178;21.176;2023-08-07T02:16:39;98922.20;;;16.60
76898;BMP180;65856;52.178;21.176;2023-08-07T02:19:04;98924.00;;;16.62
76898;BMP180;65856;52.178;21.176;2023-08-07T02:21:31;98927.40;;;16.66
76898;BMP180;65856;52.178;21.176;2023-08-07T02:23:57;98938.20;;;16.70
76898;BMP180;65856;52.178;21.176;2023-08-07T02:26:23;98934.80;;;16.60
76898;BMP180;65856;52.178;21.176;2023-08-07T02:28:48;98935.40;;;16.70
76898;BMP180;65856;52.178;21.176;2023-08-07T02:31:14;98925.20;;;16.70
76898;BMP180;65856;52.178;21.176;2023-08-07T02:33:39;98936.60;;;16.70
76898;BMP180;65856;52.178;21.176;2023-08-07T02:36:06;98944.20;;;16.70
76898;BMP180;65856;52.178;21.176;2023-08-07T02:38:32;98942.60;;;16.70
76898;BMP180;65856;52.178;21.176;2023-08-07T02:40:58;98944.00;;;16.60
76898;BMP180;65856;52.178;21.176;2023-08-07T02:43:23;98931.80;;;16.70
76898;BMP180;65856;52.178;21.176;2023-08-07T02:45:49;98930.60;;;16.70
76898;BMP180;65856;52.178;21.176;2023-08-07T02:48:14;98933.00;;;16.60
76898;BMP180;65856;52.178;21.176;2023-08-07T02:50:40;98944.60;;;16.64
76898;BMP180;65856;52.178;21.176;2023-08-07T02:53:05;98937.60;;;16.70
76898;BMP180;65856;52.178;21.176;2023-08-07T02:55:31;98931.40;;;16.70
76898;BMP180;65856;52.178;21.176;2023-08-07T02:57:56;98924.80;;;16.70
76898;BMP180;65856;52.178;21.176;2023-08-07T03:00:22;98924.60;;;16.60
76898;BMP180;65856;52.178;21.176;2023-08-07T03:02:47;98928.60;;;16.68
76898;BMP180;65856;52.178;21.176;2023-08-07T03:05:13;98925.00;;;16.60
76898;BMP180;65856;52.178;21.176;2023-08-07T03:07:38;98928.80;;;16.50
76898;BMP180;65856;52.178;21.176;2023-08-07T03:10:05;98929.40;;;16.50
76898;BMP180;65856;52.178;21.176;2023-08-07T03:12:31;98932.80;;;16.40
76898;BMP180;65856;52.178;21.176;2023-08-07T03:14:57;98942.60;;;16.40
76898;BMP180;65856;52.178;21.176;2023-08-07T03:17:22;98948.80;;;16.40
76898;BMP180;65856;52.178;21.176;2023-08-07T03:19:48;98952.40;;;16.48
76898;BMP180;65856;52.178;21.176;2023-08-07T03:22:14;98959.20;;;16.40
76898;BMP180;65856;52.178;21.176;2023-08-07T03:24:40;98960.60;;;16.40
76898;BMP180;65856;52.178;21.176;2023-08-07T03:27:05;98964.80;;;16.40
76898;BMP180;65856;52.178;21.176;2023-08-07T03:29:31;98967.60;;;16.40
76898;BMP180;65856;52.178;21.176;2023-08-07T03:31:56;98965.80;;;16.48
76898;BMP180;65856;52.178;21.176;2023-08-07T03:34:22;98971.40;;;16.40
76898;BMP180;65856;52.178;21.176;2023-08-07T03:36:47;98971.80;;;16.30
76898;BMP180;65856;52.178;21.176;2023-08-07T03:39:13;98975.60;;;16.30
76898;BMP180;65856;52.178;21.176;2023-08-07T03:41:39;98976.80;;;16.36
76898;BMP180;65856;52.178;21.176;2023-08-07T03:44:04;98975.60;;;16.40
76898;BMP180;65856;52.178;21.176;2023-08-07T03:46:30;98976.00;;;16.30
76898;BMP180;65856;52.178;21.176;2023-08-07T03:48:56;98972.20;;;16.30
76898;BMP180;65856;52.178;21.176;2023-08-07T03:51:21;98980.40;;;16.30
76898;BMP180;65856;52.178;21.176;2023-08-07T03:53:47;98986.60;;;16.30
76898;BMP180;65856;52.178;21.176;2023-08-07T03:56:12;98983.60;;;16.30
76898;BMP180;65856;52.178;21.176;2023-08-07T03:58:38;98974.60;;;16.40
76898;BMP180;65856;52.178;21.176;2023-08-07T04:01:04;98972.00;;;16.40
76898;BMP180;65856;52.178;21.176;2023-08-07T04:03:29;98960.60;;;16.30
76898;BMP180;65856;52.178;21.176;2023-08-07T04:05:55;98961.00;;;16.30
76898;BMP180;65856;52.178;21.176;2023-08-07T04:08:22;98965.20;;;16.20
76898;BMP180;65856;52.178;21.176;2023-08-07T04:11:02;98964.80;;;16.22
76898;BMP180;65856;52.178;21.176;2023-08-07T04:13:29;98968.80;;;16.30
76898;BMP180;65856;52.178;21.176;2023-08-07T04:15:55;98969.20;;;16.30
76898;BMP180;65856;52.178;21.176;2023-08-07T04:18:21;98966.80;;;16.30
76898;BMP180;65856;52.178;21.176;2023-08-07T04:20:54;98969.20;;;16.30
76898;BMP180;65856;52.178;21.176;2023-08-07T04:23:21;98977.00;;;16.40
76898;BMP180;65856;52.178;21.176;2023-08-07T04:25:47;98980.00;;;16.40
76898;BMP180;65856;52.178;21.176;2023-08-07T04:28:13;98987.20;;;16.40
76898;BMP180;65856;52.178;21.176;2023-08-07T04:30:40;98989.40;;;16.44
76898;BMP180;65856;52.178;21.176;2023-08-07T04:33:07;98997.60;;;16.50
76898;BMP180;65856;52.178;21.176;2023-08-07T04:35:33;99000.60;;;16.50
76898;BMP180;65856;52.178;21.176;2023-08-07T04:38:00;99009.20;;;16.60
76898;BMP180;65856;52.178;21.176;2023-08-07T04:40:26;99019.20;;;16.62
76898;BMP180;65856;52.178;21.176;2023-08-07T04:42:52;99018.20;;;16.70
76898;BMP180;65856;52.178;21.176;2023-08-07T04:45:17;99010.00;;;16.70
76898;BMP180;65856;52.178;21.176;2023-08-07T04:47:43;99009.80;;;16.72
76898;BMP180;65856;52.178;21.176;2023-08-07T04:50:09;99007.60;;;16.74
76898;BMP180;65856;52.178;21.176;2023-08-07T04:52:35;99011.40;;;16.78
76898;BMP180;65856;52.178;21.176;2023-08-07T04:55:01;99014.00;;;16.70
76898;BMP180;65856;52.178;21.176;2023-08-07T04:57:27;99015.80;;;16.70
76898;BMP180;65856;52.178;21.176;2023-08-07T04:59:53;99014.00;;;16.70
76898;BMP180;65856;52.178;21.176;2023-08-07T05:02:19;99007.40;;;16.68
76898;BMP180;65856;52.178;21.176;2023-08-07T05:04:45;99013.60;;;16.60
76898;BMP180;65856;52.178;21.176;2023-08-07T05:07:11;99017.80;;;16.70
76898;BMP180;65856;52.178;21.176;2023-08-07T05:09:38;99017.60;;;16.70
76898;BMP180;65856;52.178;21.176;2023-08-07T05:12:05;99021.20;;;16.80
76898;BMP180;65856;52.178;21.176;2023-08-07T05:14:32;99020.00;;;16.90
76898;BMP180;65856;52.178;21.176;2023-08-07T05:16:58;99022.80;;;16.90
76898;BMP180;65856;52.178;21.176;2023-08-07T05:19:27;99015.60;;;17.00
76898;BMP180;65856;52.178;21.176;2023-08-07T05:21:52;99019.60;;;17.10
76898;BMP180;65856;52.178;21.176;2023-08-07T05:24:18;99018.60;;;17.20
76898;BMP180;65856;52.178;21.176;2023-08-07T05:26:44;99021.00;;;17.20
76898;BMP180;65856;52.178;21.176;2023-08-07T05:29:09;99016.60;;;17.20
76898;BMP180;65856;52.178;21.176;2023-08-07T05:31:35;99018.00;;;17.10
76898;BMP180;65856;52.178;21.176;2023-08-07T05:34:01;99014.00;;;17.10
76898;BMP180;65856;52.178;21.176;2023-08-07T05:36:27;99013.00;;;17.10
76898;BMP180;65856;52.178;21.176;2023-08-07T05:38:53;99011.40;;;17.06
76898;BMP180;65856;52.178;21.176;2023-08-07T05:41:19;99011.80;;;17.06
76898;BMP180;65856;52.178;21.176;2023-08-07T05:43:45;99019.80;;;17.10
76898;BMP180;65856;52.178;21.176;2023-08-07T05:46:11;99021.40;;;17.10
76898;BMP180;65856;52.178;21.176;2023-08-07T05:48:36;99015.20;;;17.10
76898;BMP180;65856;52.178;21.176;2023-08-07T05:51:02;99009.60;;;17.10
76898;BMP180;65856;52.178;21.176;2023-08-07T05:53:27;99009.20;;;17.10
76898;BMP180;65856;52.178;21.176;2023-08-07T05:55:53;99009.00;;;17.10
76898;BMP180;65856;52.178;21.176;2023-08-07T05:58:18;99010.20;;;17.10
76898;BMP180;65856;52.178;21.176;2023-08-07T06:00:44;99016.20;;;17.20
76898;BMP180;65856;52.178;21.176;2023-08-07T06:03:10;99021.80;;;17.20
76898;BMP180;65856;52.178;21.176;2023-08-07T06:05:35;99020.40;;;17.20
76898;BMP180;65856;52.178;21.176;2023-08-07T06:08:01;99021.20;;;17.26
76898;BMP180;65856;52.178;21.176;2023-08-07T06:10:27;99015.00;;;17.30
76898;BMP180;65856;52.178;21.176;2023-08-07T06:12:53;99008.40;;;17.30
76898;BMP180;65856;52.178;21.176;2023-08-07T06:15:18;99006.80;;;17.32
76898;BMP180;65856;52.178;21.176;2023-08-07T06:17:45;99019.80;;;17.30
76898;BMP180;65856;52.178;21.176;2023-08-07T06:20:11;99016.20;;;17.20
76898;BMP180;65856;52.178;21.176;2023-08-07T06:22:40;99010.60;;;17.20
76898;BMP180;65856;52.178;21.176;2023-08-07T06:25:06;99019.00;;;17.10
76898;BMP180;65856;52.178;21.176;2023-08-07T06:27:32;99030.40;;;16.90
76898;BMP180;65856;52.178;21.176;2023-08-07T06:29:58;99029.40;;;16.90
76898;BMP180;65856;52.178;21.176;2023-08-07T06:32:25;99025.60;;;16.90
76898;BMP180;65856;52.178;21.176;2023-08-07T06:34:52;99030.80;;;16.80
76898;BMP180;65856;52.178;21.176;2023-08-07T06:37:18;99036.80;;;16.70
76898;BMP180;65856;52.178;21.176;2023-08-07T06:39:44;99033.20;;;16.70
76898;BMP180;65856;52.178;21.176;2023-08-07T06:42:11;99036.20;;;16.70
76898;BMP180;65856;52.178;21.176;2023-08-07T06:44:37;99039.40;;;16.70
76898;BMP180;65856;52.178;21.176;2023-08-07T06:47:03;99037.20;;;16.70
76898;BMP180;65856;52.178;21.176;2023-08-07T06:49:29;99042.20;;;16.70
76898;BMP180;65856;52.178;21.176;2023-08-07T06:51:57;99053.60;;;16.80
76898;BMP180;65856;52.178;21.176;2023-08-07T06:54:23;99047.00;;;16.80
76898;BMP180;65856;52.178;21.176;2023-08-07T06:56:48;99042.40;;;16.80
76898;BMP180;65856;52.178;21.176;2023-08-07T06:59:14;99045.20;;;16.72
76898;BMP180;65856;52.178;21.176;2023-08-07T07:01:39;99051.00;;;16.70
76898;BMP180;65856;52.178;21.176;2023-08-07T07:04:05;99054.80;;;16.80
76898;BMP180;65856;52.178;21.176;2023-08-07T07:06:30;99061.40;;;16.80
76898;BMP180;65856;52.178;21.176;2023-08-07T07:08:56;99057.60;;;16.80
76898;BMP180;65856;52.178;21.176;2023-08-07T07:11:22;99062.20;;;16.74
76898;BMP180;65856;52.178;21.176;2023-08-07T07:13:50;99067.20;;;16.76
76898;BMP180;65856;52.178;21.176;2023-08-07T07:16:20;99064.40;;;16.70
76898;BMP180;65856;52.178;21.176;2023-08-07T07:18:50;99066.60;;;16.80
76898;BMP180;65856;52.178;21.176;2023-08-07T07:21:16;99060.60;;;16.88
76898;BMP180;65856;52.178;21.176;2023-08-07T07:23:42;99070.20;;;17.00
76898;BMP180;65856;52.178;21.176;2023-08-07T07:26:08;99068.20;;;17.16
76898;BMP180;65856;52.178;21.176;2023-08-07T07:28:33;99071.00;;;17.20
76898;BMP180;65856;52.178;21.176;2023-08-07T07:30:59;99074.00;;;17.30
76898;BMP180;65856;52.178;21.176;2023-08-07T07:33:24;99077.00;;;17.40
76898;BMP180;65856;52.178;21.176;2023-08-07T07:35:50;99078.00;;;17.50
76898;BMP180;65856;52.178;21.176;2023-08-07T07:38:15;99078.20;;;17.46
76898;BMP180;65856;52.178;21.176;2023-08-07T07:40:41;99069.40;;;17.40
76898;BMP180;65856;52.178;21.176;2023-08-07T07:43:07;99077.00;;;17.40
76898;BMP180;65856;52.178;21.176;2023-08-07T07:45:33;99078.20;;;17.40
76898;BMP180;65856;52.178;21.176;2023-08-07T07:48:02;99078.60;;;17.48
76898;BMP180;65856;52.178;21.176;2023-08-07T07:50:28;99085.40;;;17.54
76898;BMP180;65856;52.178;21.176;2023-08-07T07:52:54;99083.00;;;17.60
76898;BMP180;65856;52.178;21.176;2023-08-07T07:55:20;99086.40;;;17.60
76898;BMP180;65856;52.178;21.176;2023-08-07T07:57:45;99089.20;;;17.50
76898;BMP180;65856;52.178;21.176;2023-08-07T08:00:12;99082.80;;;17.48
76898;BMP180;65856;52.178;21.176;2023-08-07T08:02:39;99086.20;;;17.40
76898;BMP180;65856;52.178;21.176;2023-08-07T08:05:07;99094.00;;;17.34
76898;BMP180;65856;52.178;21.176;2023-08-07T08:07:33;99087.00;;;17.22
76898;BMP180;65856;52.178;21.176;2023-08-07T08:10:00;99093.60;;;17.20
76898;BMP180;65856;52.178;21.176;2023-08-07T08:12:26;99095.80;;;17.20
76898;BMP180;65856;52.178;21.176;2023-08-07T08:14:52;99097.80;;;17.12
76898;BMP180;65856;52.178;21.176;2023-08-07T08:17:17;99097.80;;;17.20
76898;BMP180;65856;52.178;21.176;2023-08-07T08:19:43;99106.60;;;17.20
76898;BMP180;65856;52.178;21.176;2023-08-07T08:22:08;99107.40;;;17.30
76898;BMP180;65856;52.178;21.176;2023-08-07T08:24:35;99116.80;;;17.30
76898;BMP180;65856;52.178;21.176;2023-08-07T08:27:00;99109.80;;;17.40
76898;BMP180;65856;52.178;21.176;2023-08-07T08:29:26;99111.60;;;17.42
76898;BMP180;65856;52.178;21.176;2023-08-07T08:31:54;99116.00;;;17.52
76898;BMP180;65856;52.178;21.176;2023-08-07T08:34:20;99116.40;;;17.66
76898;BMP180;65856;52.178;21.176;2023-08-07T08:36:47;99117.80;;;17.70
76898;BMP180;65856;52.178;21.176;2023-08-07T08:39:13;99115.40;;;17.80
76898;BMP180;65856;52.178;21.176;2023-08-07T08:41:40;99111.40;;;17.80
76898;BMP180;65856;52.178;21.176;2023-08-07T08:44:17;99101.40;;;17.90
76898;BMP180;65856;52.178;21.176;2023-08-07T08:46:48;99106.80;;;17.90
76898;BMP180;65856;52.178;21.176;2023-08-07T08:49:23;99114.40;;;17.90
76898;BMP180;65856;52.178;21.176;2023-08-07T08:51:53;99123.80;;;17.80
76898;BMP180;65856;52.178;21.176;2023-08-07T08:54:20;99123.20;;;17.80
76898;BMP180;65856;52.178;21.176;2023-08-07T08:56:45;99125.20;;;17.80
76898;BMP180;65856;52.178;21.176;2023-08-07T08:59:12;99133.80;;;17.74
76898;BMP180;65856;52.178;21.176;2023-08-07T09:01:38;99138.40;;;17.70
76898;BMP180;65856;52.178;21.176;2023-08-07T09:04:03;99142.20;;;17.70
76898;BMP180;65856;52.178;21.176;2023-08-07T09:06:31;99143.40;;;17.78
76898;BMP180;65856;52.178;21.176;2023-08-07T09:08:59;99144.60;;;17.90
76898;BMP180;65856;52.178;21.176;2023-08-07T09:11:26;99151.40;;;18.00
76898;BMP180;65856;52.178;21.176;2023-08-07T09:13:54;99148.00;;;18.14
76898;BMP180;65856;52.178;21.176;2023-08-07T09:16:21;99149.60;;;18.30
76898;BMP180;65856;52.178;21.176;2023-08-07T09:18:50;99154.20;;;18.48
76898;BMP180;65856;52.178;21.176;2023-08-07T09:21:17;99161.40;;;18.60
76898;BMP180;65856;52.178;21.176;2023-08-07T09:23:43;99175.20;;;18.70
76898;BMP180;65856;52.178;21.176;2023-08-07T09:26:10;99173.80;;;18.80
76898;BMP180;65856;52.178;21.176;2023-08-07T09:28:36;99171.00;;;19.00
76898;BMP180;65856;52.178;21.176;2023-08-07T09:31:01;99175.80;;;19.18
76898;BMP180;65856;52.178;21.176;2023-08-07T09:33:29;99182.40;;;19.30
76898;BMP180;65856;52.178;21.176;2023-08-07T09:36:01;99176.80;;;19.68
76898;BMP180;65856;52.178;21.176;2023-08-07T09:38:31;99186.40;;;20.10
76898;BMP180;65856;52.178;21.176;2023-08-07T09:41:01;99182.60;;;20.38
76898;BMP180;65856;52.178;21.176;2023-08-07T09:43:28;99184.20;;;20.62
76898;BMP180;65856;52.178;21.176;2023-08-07T09:46:07;99189.00;;;21.00
76898;BMP180;65856;52.178;21.176;2023-08-07T09:48:41;99204.60;;;21.22
76898;BMP180;65856;52.178;21.176;2023-08-07T09:51:08;99208.00;;;21.20
76898;BMP180;65856;52.178;21.176;2023-08-07T09:53:34;99197.00;;;21.08
76898;BMP180;65856;52.178;21.176;2023-08-07T09:56:00;99196.00;;;21.00
76898;BMP180;65856;52.178;21.176;2023-08-07T09:58:28;99205.80;;;21.00
76898;BMP180;65856;52.178;21.176;2023-08-07T10:00:54;99205.40;;;20.90
76898;BMP180;65856;52.178;21.176;2023-08-07T10:03:24;99209.00;;;20.80
76898;BMP180;65856;52.178;21.176;2023-08-07T10:05:51;99208.20;;;20.70
76898;BMP180;65856;52.178;21.176;2023-08-07T10:08:18;99213.60;;;20.60
76898;BMP180;65856;52.178;21.176;2023-08-07T10:10:44;99204.40;;;20.66
76898;BMP180;65856;52.178;21.176;2023-08-07T10:13:13;99211.40;;;20.60
76898;BMP180;65856;52.178;21.176;2023-08-07T10:15:40;99211.00;;;20.70
76898;BMP180;65856;52.178;21.176;2023-08-07T10:18:08;99212.00;;;20.86
76898;BMP180;65856;52.178;21.176;2023-08-07T10:20:36;99217.80;;;21.00
76898;BMP180;65856;52.178;21.176;2023-08-07T10:23:10;99222.60;;;21.10
76898;BMP180;65856;52.178;21.176;2023-08-07T10:25:43;99213.20;;;21.10
76898;BMP180;65856;52.178;21.176;2023-08-07T10:28:15;99214.60;;;21.20
76898;BMP180;65856;52.178;21.176;2023-08-07T10:30:42;99212.40;;;21.30
76898;BMP180;65856;52.178;21.176;2023-08-07T10:33:13;99216.20;;;21.56
76898;BMP180;65856;52.178;21.176;2023-08-07T10:35:46;99217.80;;;21.86
76898;BMP180;65856;52.178;21.176;2023-08-07T10:38:13;99209.20;;;22.10
76898;BMP180;65856;52.178;21.176;2023-08-07T10:41:13;99219.80;;;22.20
76898;BMP180;65856;52.178;21.176;2023-08-07T10:43:41;99210.60;;;22.40
76898;BMP180;65856;52.178;21.176;2023-08-07T10:46:16;99214.20;;;22.60
76898;BMP180;65856;52.178;21.176;2023-08-07T10:48:47;99214.20;;;22.60
76898;BMP180;65856;52.178;21.176;2023-08-07T10:51:17;99206.60;;;22.70
76898;BMP180;65856;52.178;21.176;2023-08-07T10:53:46;99207.40;;;22.68
76898;BMP180;65856;52.178;21.176;2023-08-07T10:56:28;99208.00;;;22.60
76898;BMP180;65856;52.178;21.176;2023-08-07T10:58:55;99219.60;;;22.40
76898;BMP180;65856;52.178;21.176;2023-08-07T11:03:59;99228.40;;;22.00
76898;BMP180;65856;52.178;21.176;2023-08-07T11:06:30;99234.20;;;21.80
76898;BMP180;65856;52.178;21.176;2023-08-07T11:08:57;99235.60;;;21.60
76898;BMP180;65856;52.178;21.176;2023-08-07T11:11:24;99244.40;;;21.58
76898;BMP180;65856;52.178;21.176;2023-08-07T11:13:50;99244.60;;;21.40
76898;BMP180;65856;52.178;21.176;2023-08-07T11:16:17;99245.20;;;21.50
76898;BMP180;65856;52.178;21.176;2023-08-07T11:18:47;99243.60;;;21.68
76898;BMP180;65856;52.178;21.176;2023-08-07T11:21:14;99248.40;;;21.80
76898;BMP180;65856;52.178;21.176;2023-08-07T11:23:40;99246.60;;;21.80
76898;BMP180;65856;52.178;21.176;2023-08-07T11:26:10;99239.40;;;21.80
76898;BMP180;65856;52.178;21.176;2023-08-07T11:28:35;99246.00;;;21.80
76898;BMP180;65856;52.178;21.176;2023-08-07T11:31:01;99247.20;;;21.90
76898;BMP180;65856;52.178;21.176;2023-08-07T11:33:28;99243.80;;;21.80
76898;BMP180;65856;52.178;21.176;2023-08-07T11:35:55;99246.60;;;21.90
76898;BMP180;65856;52.178;21.176;2023-08-07T11:38:43;99244.60;;;21.98
76898;BMP180;65856;52.178;21.176;2023-08-07T11:41:12;99243.00;;;22.10
76898;BMP180;65856;52.178;21.176;2023-08-07T11:43:41;99235.00;;;22.10
76898;BMP180;65856;52.178;21.176;2023-08-07T11:46:09;99234.40;;;22.10
76898;BMP180;65856;52.178;21.176;2023-08-07T11:48:37;99234.40;;;22.10
76898;BMP180;65856;52.178;21.176;2023-08-07T11:51:05;99239.00;;;22.10
76898;BMP180;65856;52.178;21.176;2023-08-07T11:53:35;99238.00;;;22.18
76898;BMP180;65856;52.178;21.176;2023-08-07T11:56:08;99242.00;;;22.20
76898;BMP180;65856;52.178;21.176;2023-08-07T11:58:37;99243.40;;;22.20
76898;BMP180;65856;52.178;21.176;2023-08-07T12:01:14;99248.60;;;22.20
76898;BMP180;65856;52.178;21.176;2023-08-07T12:04:08;99241.40;;;22.20
76898;BMP180;65856;52.178;21.176;2023-08-07T12:06:35;99238.20;;;22.30
76898;BMP180;65856;52.178;21.176;2023-08-07T12:09:02;99240.00;;;22.30
76898;BMP180;65856;52.178;21.176;2023-08-07T12:11:29;99240.40;;;22.20
76898;BMP180;65856;52.178;21.176;2023-08-07T12:13:55;99240.60;;;22.20
76898;BMP180;65856;52.178;21.176;2023-08-07T12:16:21;99248.00;;;22.20
76898;BMP180;65856;52.178;21.176;2023-08-07T12:18:50;99254.00;;;22.20
76898;BMP180;65856;52.178;21.176;2023-08-07T12:21:22;99258.00;;;22.18
76898;BMP180;65856;52.178;21.176;2023-08-07T12:23:49;99259.80;;;22.10
76898;BMP180;65856;52.178;21.176;2023-08-07T12:26:17;99268.00;;;22.00
76898;BMP180;65856;52.178;21.176;2023-08-07T12:28:43;99282.00;;;21.90
76898;BMP180;65856;52.178;21.176;2023-08-07T12:31:08;99290.60;;;21.90
76898;BMP180;65856;52.178;21.176;2023-08-07T12:33:34;99303.60;;;21.80
76898;BMP180;65856;52.178;21.176;2023-08-07T12:36:01;99302.80;;;21.70
76898;BMP180;65856;52.178;21.176;2023-08-07T12:38:28;99302.20;;;21.70
76898;BMP180;65856;52.178;21.176;2023-08-07T12:40:54;99312.00;;;21.70
76898;BMP180;65856;52.178;21.176;2023-08-07T12:43:19;99306.20;;;21.60
76898;BMP180;65856;52.178;21.176;2023-08-07T12:45:45;99307.20;;;21.50
76898;BMP180;65856;52.178;21.176;2023-08-07T12:48:11;99314.80;;;21.46
76898;BMP180;65856;52.178;21.176;2023-08-07T12:50:37;99321.40;;;21.40
76898;BMP180;65856;52.178;21.176;2023-08-07T12:53:03;99327.20;;;21.30
76898;BMP180;65856;52.178;21.176;2023-08-07T12:55:29;99333.20;;;21.20
76898;BMP180;65856;52.178;21.176;2023-08-07T12:57:55;99332.60;;;21.20
76898;BMP180;65856;52.178;21.176;2023-08-07T13:00:22;99338.60;;;21.30
76898;BMP180;65856;52.178;21.176;2023-08-07T13:02:50;99334.80;;;21.30
76898;BMP180;65856;52.178;21.176;2023-08-07T13:05:17;99329.00;;;21.38
76898;BMP180;65856;52.178;21.176;2023-08-07T13:07:46;99332.20;;;21.50
76898;BMP180;65856;52.178;21.176;2023-08-07T13:10:14;99330.20;;;21.60
76898;BMP180;65856;52.178;21.176;2023-08-07T13:12:43;99327.60;;;21.68
76898;BMP180;65856;52.178;21.176;2023-08-07T13:15:14;99328.20;;;21.74
76898;BMP180;65856;52.178;21.176;2023-08-07T13:17:42;99323.80;;;21.88
76898;BMP180;65856;52.178;21.176;2023-08-07T13:20:10;99322.60;;;21.94
76898;BMP180;65856;52.178;21.176;2023-08-07T13:22:40;99321.40;;;22.06
76898;BMP180;65856;52.178;21.176;2023-08-07T13:25:07;99319.40;;;22.10
76898;BMP180;65856;52.178;21.176;2023-08-07T13:27:34;99314.40;;;22.10
76898;BMP180;65856;52.178;21.176;2023-08-07T13:30:02;99310.00;;;22.10
76898;BMP180;65856;52.178;21.176;2023-08-07T13:32:29;99305.60;;;22.10
76898;BMP180;65856;52.178;21.176;2023-08-07T13:34:54;99320.60;;;22.10
76898;BMP180;65856;52.178;21.176;2023-08-07T13:37:21;99318.00;;;22.00
76898;BMP180;65856;52.178;21.176;2023-08-07T13:39:46;99323.60;;;21.90
76898;BMP180;65856;52.178;21.176;2023-08-07T13:42:15;99325.20;;;21.80
76898;BMP180;65856;52.178;21.176;2023-08-07T13:44:41;99318.60;;;21.80
76898;BMP180;65856;52.178;21.176;2023-08-07T13:47:06;99323.40;;;21.70
76898;BMP180;65856;52.178;21.176;2023-08-07T13:49:34;99326.80;;;21.60
76898;BMP180;65856;52.178;21.176;2023-08-07T13:51:59;99329.60;;;21.50
76898;BMP180;65856;52.178;21.176;2023-08-07T13:54:25;99331.20;;;21.50
76898;BMP180;65856;52.178;21.176;2023-08-07T13:56:50;99339.80;;;21.50
76898;BMP180;65856;52.178;21.176;2023-08-07T13:59:16;99340.80;;;21.40
76898;BMP180;65856;52.178;21.176;2023-08-07T14:01:42;99342.80;;;21.40
76898;BMP180;65856;52.178;21.176;2023-08-07T14:04:07;99349.00;;;21.30